createdAt,value
2022-12-08T00:00:56.864Z,25.23
2022-12-08T00:03:23.873Z,26.38
2022-12-08T00:06:05.147Z,22.83
2022-12-08T00:08:45.699Z,25.23
2022-12-08T00:11:13.461Z,26.10
2022-12-08T00:13:40.124Z,29.25
2022-12-08T00:16:07.105Z,29.40
2022-12-08T00:18:33.927Z,26.95
2022-12-08T00:21:00.775Z,28.45
2022-12-08T00:23:27.751Z,28.17
2022-12-08T00:25:55.740Z,21.98
2022-12-08T00:28:22.636Z,21.45
2022-12-08T00:30:49.235Z,20.70
2022-12-08T00:33:16.189Z,21.70
2022-12-08T00:35:43.473Z,21.35
2022-12-08T00:38:10.223Z,21.13
2022-12-08T00:40:37.291Z,18.23
2022-12-08T00:43:04.029Z,19.80
2022-12-08T00:45:30.911Z,20.25
2022-12-08T00:47:58.012Z,18.67
2022-12-08T00:50:24.776Z,18.63
2022-12-08T00:52:54.509Z,21.05
2022-12-08T00:55:21.147Z,19.95
2022-12-08T00:57:48.021Z,19.45
2022-12-08T01:00:14.947Z,21.42
2022-12-08T01:02:55.800Z,19.35
2022-12-08T01:05:23.024Z,18.23
2022-12-08T01:07:50.084Z,18.85
2022-12-08T01:10:17.056Z,17.40
2022-12-08T01:12:43.738Z,16.30
2022-12-08T01:15:10.515Z,19.33
2022-12-08T01:17:37.721Z,19.38
2022-12-08T01:20:05.259Z,20.60
2022-12-08T01:22:33.604Z,20.70
2022-12-08T01:25:00.759Z,20.75
2022-12-08T01:27:27.600Z,16.85
2022-12-08T01:29:54.375Z,16.20
2022-12-08T01:32:21.197Z,20.52
2022-12-08T01:34:47.788Z,21.48
2022-12-08T01:37:14.501Z,23.25
2022-12-08T01:39:41.540Z,17.27
2022-12-08T01:42:18.632Z,19.80
2022-12-08T01:44:45.881Z,18.58
2022-12-08T01:47:12.505Z,16.88
2022-12-08T01:49:39.113Z,16.00
2022-12-08T01:52:11.386Z,16.38
2022-12-08T01:54:44.757Z,16.30
2022-12-08T01:57:11.439Z,19.80
2022-12-08T01:59:49.540Z,18.85
2022-12-08T02:02:16.417Z,15.60
2022-12-08T02:04:43.208Z,18.38
2022-12-08T02:07:11.530Z,18.30
2022-12-08T02:09:38.836Z,17.33
2022-12-08T02:12:05.683Z,16.38
2022-12-08T02:14:32.678Z,17.48
2022-12-08T02:17:13.258Z,18.45
2022-12-08T02:19:42.685Z,16.23
2022-12-08T02:22:13.109Z,17.33
2022-12-08T02:24:42.831Z,15.50
2022-12-08T02:27:15.237Z,18.13
2022-12-08T02:29:47.555Z,15.65
2022-12-08T02:32:14.120Z,13.52
2022-12-08T02:34:49.683Z,15.13
2022-12-08T02:37:24.682Z,15.32
2022-12-08T02:39:54.994Z,19.63
2022-12-08T02:42:21.750Z,21.25
2022-12-08T02:44:53.295Z,20.40
2022-12-08T02:47:22.114Z,18.33
2022-12-08T02:49:49.103Z,19.30
2022-12-08T02:52:15.836Z,20.08
2022-12-08T02:54:44.433Z,15.05
2022-12-08T02:57:11.200Z,17.50
2022-12-08T02:59:40.739Z,16.65
2022-12-08T03:02:10.609Z,19.02
2022-12-08T03:04:46.193Z,16.00
2022-12-08T03:07:24.194Z,15.02
2022-12-08T03:10:03.020Z,15.48
2022-12-08T03:12:43.832Z,18.05
2022-12-08T03:15:12.962Z,17.60
2022-12-08T03:17:41.584Z,22.80
2022-12-08T03:20:10.550Z,20.42
2022-12-08T03:22:38.652Z,22.75
2022-12-08T03:25:05.549Z,24.02
2022-12-08T03:27:32.844Z,21.15
2022-12-08T03:30:00.161Z,22.83
2022-12-08T03:32:30.375Z,21.52
2022-12-08T03:34:58.184Z,18.92
2022-12-08T03:37:26.965Z,23.67
2022-12-08T03:39:53.689Z,22.42
2022-12-08T03:42:20.513Z,18.95
2022-12-08T03:44:47.168Z,22.25
2022-12-08T03:47:13.941Z,23.90
2022-12-08T03:49:41.368Z,20.65
2022-12-08T03:52:08.110Z,19.45
2022-12-08T03:54:34.706Z,19.83
2022-12-08T03:57:01.468Z,19.42
2022-12-08T03:59:28.385Z,20.48
2022-12-08T04:01:55.037Z,26.95
2022-12-08T04:04:21.886Z,27.92
2022-12-08T04:06:48.642Z,24.52
2022-12-08T04:09:15.426Z,25.77
2022-12-08T04:11:42.406Z,30.25
2022-12-08T04:14:09.165Z,26.20
2022-12-08T04:16:35.943Z,25.10
2022-12-08T04:19:02.715Z,24.05
2022-12-08T04:21:29.466Z,23.90
2022-12-08T04:24:00.992Z,22.40
2022-12-08T04:26:28.685Z,28.48
2022-12-08T04:28:55.623Z,30.38
2022-12-08T04:31:25.365Z,27.92
2022-12-08T04:33:52.282Z,26.40
2022-12-08T04:36:19.254Z,25.45
2022-12-08T04:38:45.973Z,27.73
2022-12-08T04:41:12.747Z,25.85
2022-12-08T04:43:39.822Z,24.30
2022-12-08T04:46:07.765Z,22.60
2022-12-08T04:48:34.985Z,24.55
2022-12-08T04:51:01.798Z,31.48
2022-12-08T04:53:28.601Z,34.67
2022-12-08T04:55:56.024Z,24.13
2022-12-08T04:58:22.919Z,26.88
2022-12-08T05:00:49.760Z,20.70
2022-12-08T05:03:17.024Z,24.00
2022-12-08T05:05:43.715Z,26.73
2022-12-08T05:08:19.640Z,25.00
2022-12-08T05:10:46.531Z,22.70
2022-12-08T05:13:13.361Z,22.83
2022-12-08T05:15:40.055Z,24.42
2022-12-08T05:18:07.520Z,25.70
2022-12-08T05:20:34.610Z,21.95
2022-12-08T05:23:01.603Z,27.83
2022-12-08T05:25:28.264Z,51.28
2022-12-08T05:28:06.132Z,55.38
2022-12-08T05:30:38.308Z,63.33
2022-12-08T05:33:04.985Z,53.88
2022-12-08T05:35:31.944Z,40.42
2022-12-08T05:37:58.804Z,34.97
2022-12-08T05:40:25.626Z,45.97
2022-12-08T05:42:53.077Z,54.50
2022-12-08T05:45:19.779Z,57.15
2022-12-08T05:47:46.405Z,48.95
2022-12-08T05:50:13.368Z,40.10
2022-12-08T05:52:40.130Z,31.50
2022-12-08T05:55:07.176Z,27.60
2022-12-08T05:57:33.889Z,31.85
2022-12-08T06:00:01.129Z,34.38
2022-12-08T06:02:28.710Z,35.15
2022-12-08T06:04:55.793Z,34.17
2022-12-08T06:07:22.791Z,33.38
2022-12-08T06:09:49.427Z,39.40
2022-12-08T06:12:16.420Z,33.03
2022-12-08T06:14:43.232Z,32.92
2022-12-08T06:17:10.002Z,32.97
2022-12-08T06:19:36.737Z,39.05
2022-12-08T06:22:03.665Z,38.10
2022-12-08T06:24:30.590Z,38.63
2022-12-08T06:26:57.552Z,39.40
2022-12-08T06:29:24.165Z,36.10
2022-12-08T06:31:52.395Z,37.53
2022-12-08T06:34:19.192Z,51.63
2022-12-08T06:36:46.038Z,140.85
2022-12-08T06:39:12.697Z,109.57
2022-12-08T06:41:59.381Z,92.55
2022-12-08T06:44:26.079Z,101.65
2022-12-08T06:46:52.833Z,67.30
2022-12-08T06:49:19.545Z,76.38
2022-12-08T06:51:46.166Z,72.30
2022-12-08T06:54:13.007Z,80.32
2022-12-08T06:56:39.888Z,87.05
2022-12-08T06:59:06.698Z,87.25
2022-12-08T07:01:33.641Z,66.30
2022-12-08T07:04:00.694Z,65.80
2022-12-08T07:06:27.413Z,50.92
2022-12-08T07:08:54.076Z,43.60
2022-12-08T07:11:22.276Z,41.15
2022-12-08T07:13:49.884Z,38.67
2022-12-08T07:16:16.690Z,39.00
2022-12-08T07:18:44.291Z,41.40
2022-12-08T07:21:11.955Z,49.33
2022-12-08T07:23:38.957Z,52.92
2022-12-08T07:26:06.643Z,43.50
2022-12-08T07:28:34.030Z,41.58
2022-12-08T07:31:00.885Z,43.33
2022-12-08T07:33:28.097Z,37.03
2022-12-08T07:35:55.647Z,37.75
2022-12-08T07:38:22.325Z,39.42
2022-12-08T07:40:49.059Z,40.85
2022-12-08T07:43:15.774Z,38.40
2022-12-08T07:45:42.728Z,42.28
2022-12-08T07:48:09.558Z,49.30
2022-12-08T07:50:36.371Z,53.55
2022-12-08T07:53:02.936Z,44.03
2022-12-08T07:55:29.652Z,45.13
2022-12-08T07:57:56.357Z,44.03
2022-12-08T08:00:23.207Z,46.53
2022-12-08T08:02:49.862Z,42.00
2022-12-08T08:05:16.743Z,45.97
2022-12-08T08:07:43.841Z,50.28
2022-12-08T08:10:11.706Z,37.92
2022-12-08T08:12:39.763Z,39.42
2022-12-08T08:15:07.738Z,41.58
2022-12-08T08:17:38.459Z,44.05
2022-12-08T08:20:08.865Z,49.67
2022-12-08T08:22:36.283Z,51.95
2022-12-08T08:25:03.406Z,38.15
2022-12-08T08:27:30.070Z,45.65
2022-12-08T08:29:56.882Z,50.47
2022-12-08T08:32:23.545Z,48.45
2022-12-08T08:34:50.889Z,45.15
2022-12-08T08:37:17.768Z,48.08
2022-12-08T08:39:44.409Z,46.05
2022-12-08T08:42:11.254Z,40.10
2022-12-08T08:44:39.227Z,37.33
2022-12-08T08:47:05.938Z,37.92
2022-12-08T08:49:32.669Z,37.47
2022-12-08T08:51:59.530Z,36.78
2022-12-08T08:54:26.405Z,39.25
2022-12-08T08:56:53.252Z,48.90
2022-12-08T08:59:22.944Z,37.33
2022-12-08T09:01:49.643Z,39.92
2022-12-08T09:04:16.536Z,33.83
2022-12-08T09:06:44.384Z,35.90
2022-12-08T09:09:11.755Z,30.02
2022-12-08T09:11:38.652Z,32.15
2022-12-08T09:14:06.073Z,32.65
2022-12-08T09:16:37.490Z,29.00
2022-12-08T09:19:07.489Z,28.60
2022-12-08T09:21:34.617Z,40.10
2022-12-08T09:24:01.436Z,30.95
2022-12-08T09:26:28.746Z,35.67
2022-12-08T09:28:56.277Z,32.35
2022-12-08T09:31:24.484Z,30.38
2022-12-08T09:33:54.414Z,30.50
2022-12-08T09:36:21.372Z,26.35
2022-12-08T09:38:49.227Z,26.13
2022-12-08T09:41:38.974Z,25.67
2022-12-08T09:44:24.125Z,28.02
2022-12-08T09:46:52.943Z,26.23
2022-12-08T09:52:04.307Z,25.35
2022-12-08T09:54:39.968Z,27.90
2022-12-08T09:57:08.775Z,28.15
2022-12-08T09:59:35.997Z,28.73
2022-12-08T10:02:03.163Z,27.83
2022-12-08T10:04:35.901Z,29.13
2022-12-08T10:07:16.523Z,28.35
2022-12-08T10:09:50.398Z,52.88
2022-12-08T10:12:17.265Z,55.93
2022-12-08T10:14:52.468Z,51.05
2022-12-08T10:17:26.953Z,41.85
2022-12-08T10:20:02.009Z,28.70
2022-12-08T10:22:33.311Z,27.20
2022-12-08T10:25:26.467Z,42.80
2022-12-08T10:27:54.384Z,41.72
2022-12-08T10:30:22.066Z,63.45
2022-12-08T10:32:50.546Z,38.45
2022-12-08T10:35:18.727Z,44.15
2022-12-08T10:37:59.645Z,30.67
2022-12-08T10:40:30.763Z,80.40
2022-12-08T10:43:02.200Z,49.67
2022-12-08T10:45:38.846Z,60.97
2022-12-08T10:48:17.583Z,44.33
2022-12-08T10:50:46.047Z,35.55
2022-12-08T10:53:20.662Z,33.00
2022-12-08T10:55:48.877Z,25.88
2022-12-08T10:58:30.496Z,23.73
2022-12-08T11:00:59.208Z,26.55
2022-12-08T11:03:30.505Z,29.83
2022-12-08T11:05:58.873Z,26.65
2022-12-08T11:08:27.213Z,27.35
2022-12-08T11:10:54.151Z,29.33
2022-12-08T11:13:26.396Z,29.08
2022-12-08T11:15:56.743Z,35.83
2022-12-08T11:18:27.065Z,28.92
2022-12-08T11:21:02.387Z,33.90
2022-12-08T11:23:29.948Z,46.05
2022-12-08T11:25:59.143Z,52.17
2022-12-08T11:28:33.023Z,48.05
2022-12-08T11:31:03.953Z,39.25
2022-12-08T11:33:30.741Z,36.33
2022-12-08T11:36:02.483Z,41.05
2022-12-08T11:38:30.133Z,51.90
2022-12-08T11:41:15.577Z,43.80
2022-12-08T11:43:47.266Z,45.10
2022-12-08T11:46:17.251Z,42.83
2022-12-08T11:48:53.386Z,35.63
2022-12-08T11:51:29.979Z,45.42
2022-12-08T11:54:07.166Z,41.80
2022-12-08T11:56:35.030Z,30.58
2022-12-08T11:59:03.513Z,34.90
2022-12-08T12:01:30.209Z,32.28
2022-12-08T12:04:02.071Z,33.47
2022-12-08T12:06:55.575Z,36.10
2022-12-08T12:09:22.635Z,37.33
2022-12-08T12:12:06.317Z,43.40
2022-12-08T12:14:51.124Z,44.17
2022-12-08T12:17:31.712Z,39.13
2022-12-08T12:20:00.708Z,32.75
2022-12-08T12:22:33.334Z,36.08
2022-12-08T12:25:01.715Z,37.75
2022-12-08T12:27:30.037Z,39.88
2022-12-08T12:29:59.061Z,57.30
2022-12-08T12:32:27.393Z,57.00
2022-12-08T12:34:56.899Z,44.67
2022-12-08T12:37:35.953Z,63.85
2022-12-08T12:40:07.609Z,52.42
2022-12-08T12:42:51.003Z,29.63
2022-12-08T12:45:17.926Z,30.73
2022-12-08T12:48:05.236Z,25.92
2022-12-08T12:50:39.862Z,34.38
2022-12-08T12:53:29.706Z,37.97
2022-12-08T12:55:56.447Z,37.72
2022-12-08T12:58:32.325Z,35.80
2022-12-08T13:01:17.090Z,34.50
2022-12-08T13:03:48.408Z,46.35
2022-12-08T13:06:15.379Z,37.83
2022-12-08T13:08:52.989Z,40.45
2022-12-08T13:11:20.081Z,95.78
2022-12-08T13:16:44.638Z,34.67
2022-12-08T13:19:16.972Z,38.53
2022-12-08T13:21:46.440Z,81.75
2022-12-08T13:24:31.191Z,32.92
2022-12-08T13:27:03.990Z,71.47
2022-12-08T13:29:35.272Z,61.90
2022-12-08T13:32:14.052Z,63.45
2022-12-08T13:34:45.035Z,108.40
2022-12-08T13:37:11.848Z,101.32
2022-12-08T13:39:55.575Z,65.10
2022-12-08T13:42:30.801Z,94.88
2022-12-08T13:45:21.285Z,85.78
2022-12-08T13:48:20.559Z,71.03
2022-12-08T13:52:15.755Z,80.35
2022-12-08T13:59:30.035Z,97.68
2022-12-08T14:02:17.274Z,67.55
2022-12-08T14:05:16.810Z,62.42
2022-12-08T14:07:33.973Z,73.47
2022-12-08T14:10:03.827Z,60.25
2022-12-08T14:12:31.518Z,83.05
2022-12-08T14:15:14.803Z,119.30
2022-12-08T14:17:41.892Z,60.55
2022-12-08T14:20:13.605Z,83.72
2022-12-08T14:22:41.169Z,98.35
2022-12-08T14:25:14.364Z,141.00
2022-12-08T14:27:41.197Z,91.32
2022-12-08T14:30:14.188Z,96.00
2022-12-08T14:32:45.428Z,97.40
2022-12-08T14:35:16.117Z,97.03
2022-12-08T14:37:43.781Z,116.00
2022-12-08T14:40:22.961Z,112.55
2022-12-08T14:42:52.026Z,79.30
2022-12-08T14:45:19.436Z,89.68
2022-12-08T14:47:46.294Z,76.05
2022-12-08T14:50:31.900Z,69.97
2022-12-08T14:52:59.397Z,79.82
2022-12-08T14:55:26.241Z,82.97
2022-12-08T14:57:52.980Z,84.72
2022-12-08T15:00:20.943Z,89.97
2022-12-08T15:02:47.866Z,97.32
2022-12-08T15:05:19.199Z,114.72
2022-12-08T15:07:59.444Z,96.07
2022-12-08T15:10:27.555Z,112.43
2022-12-08T15:13:01.508Z,105.13
2022-12-08T15:15:28.851Z,90.55
2022-12-08T15:18:02.531Z,108.43
2022-12-08T15:20:43.876Z,142.35
2022-12-08T15:23:19.685Z,96.72
2022-12-08T15:25:46.761Z,86.95
2022-12-08T15:28:14.426Z,126.30
2022-12-08T15:30:41.177Z,171.65
2022-12-08T15:33:08.008Z,171.75
2022-12-08T15:35:40.582Z,174.52
2022-12-08T15:38:12.166Z,210.63
2022-12-08T15:40:38.882Z,185.02
2022-12-08T15:43:05.513Z,208.57
2022-12-08T15:45:32.863Z,343.02
2022-12-08T15:47:59.786Z,256.80
2022-12-08T15:50:26.862Z,238.48
2022-12-08T15:53:03.225Z,283.60
2022-12-08T15:55:32.083Z,302.10
2022-12-08T16:00:53.406Z,154.55
2022-12-08T16:03:51.635Z,165.38
2022-12-08T16:06:57.368Z,252.88
2022-12-08T16:09:11.124Z,135.90
2022-12-08T16:12:09.973Z,294.02
2022-12-08T16:15:47.137Z,388.70
2022-12-08T16:17:37.258Z,199.80
2022-12-08T16:20:09.182Z,233.35
2022-12-08T16:22:56.814Z,269.20
2022-12-08T16:28:54.309Z,193.80
2022-12-08T16:31:23.362Z,211.05
2022-12-08T16:33:50.288Z,272.35
2022-12-08T16:36:17.085Z,241.25
2022-12-08T16:38:44.029Z,192.38
2022-12-08T16:41:27.334Z,198.45
2022-12-08T16:43:54.085Z,153.55
2022-12-08T16:46:23.951Z,265.25
2022-12-08T16:48:50.820Z,187.07
2022-12-08T16:51:27.717Z,204.48
2022-12-08T16:53:55.604Z,182.75
2022-12-08T16:56:26.380Z,182.40
2022-12-08T16:58:57.337Z,168.13
2022-12-08T17:01:24.378Z,157.45
2022-12-08T17:04:07.435Z,141.45
2022-12-08T17:06:43.106Z,159.93
2022-12-08T17:09:09.971Z,152.40
2022-12-08T17:11:43.006Z,141.07
2022-12-08T17:14:10.909Z,218.57
2022-12-08T17:16:48.024Z,229.43
2022-12-08T17:19:15.660Z,158.55
2022-12-08T17:21:42.924Z,211.88
2022-12-08T17:24:09.852Z,206.93
2022-12-08T17:26:37.175Z,120.13
2022-12-08T17:29:04.450Z,108.18
2022-12-08T17:31:32.618Z,145.00
2022-12-08T17:34:04.851Z,127.25
2022-12-08T17:36:31.791Z,103.18
2022-12-08T17:39:06.363Z,125.78
2022-12-08T17:41:33.342Z,123.45
2022-12-08T17:44:00.576Z,138.68
2022-12-08T17:46:27.470Z,175.85
2022-12-08T17:48:54.690Z,121.85
2022-12-08T17:51:21.585Z,309.63
2022-12-08T17:53:48.229Z,156.32
2022-12-08T17:56:16.485Z,103.88
2022-12-08T17:58:43.405Z,177.02
2022-12-08T18:01:11.229Z,221.27
2022-12-08T18:03:38.533Z,92.28
2022-12-08T18:06:08.384Z,154.98
2022-12-08T18:08:35.530Z,183.38
2022-12-08T18:11:02.758Z,126.68
2022-12-08T18:13:29.574Z,175.68
2022-12-08T18:15:56.253Z,143.93
2022-12-08T18:18:23.182Z,91.93
2022-12-08T18:20:50.189Z,143.82
2022-12-08T18:23:17.868Z,134.10
2022-12-08T18:25:45.376Z,118.18
2022-12-08T18:28:12.173Z,130.63
2022-12-08T18:30:39.891Z,117.30
2022-12-08T18:33:07.696Z,116.50
2022-12-08T18:35:34.571Z,167.57
2022-12-08T18:38:01.363Z,164.63
2022-12-08T18:40:28.457Z,159.85
2022-12-08T18:42:55.458Z,206.40
2022-12-08T18:45:22.955Z,119.15
2022-12-08T18:47:50.641Z,131.85
2022-12-08T18:50:17.644Z,138.70
2022-12-08T18:52:45.094Z,118.68
2022-12-08T18:55:11.982Z,101.55
2022-12-08T18:57:39.583Z,94.63
2022-12-08T19:00:07.370Z,97.95
2022-12-08T19:02:35.350Z,219.85
2022-12-08T19:05:02.125Z,242.05
2022-12-08T19:07:28.747Z,244.77
2022-12-08T19:09:56.334Z,112.40
2022-12-08T19:12:23.039Z,102.95
2022-12-08T19:14:49.706Z,120.65
2022-12-08T19:17:16.606Z,105.55
2022-12-08T19:19:43.359Z,102.35
2022-12-08T19:22:10.121Z,118.68
2022-12-08T19:24:36.798Z,98.18
2022-12-08T19:27:04.079Z,125.28
2022-12-08T19:29:30.986Z,87.53
2022-12-08T19:31:57.856Z,106.53
2022-12-08T19:34:24.710Z,101.95
2022-12-08T19:36:58.088Z,92.88
2022-12-08T19:39:38.705Z,106.80
2022-12-08T19:45:17.933Z,93.45
2022-12-08T19:47:44.951Z,95.63
2022-12-08T19:50:26.710Z,94.18
2022-12-08T19:52:53.590Z,92.50
2022-12-08T19:55:20.923Z,96.30
2022-12-08T19:57:47.741Z,82.05
2022-12-08T20:00:15.056Z,85.38
2022-12-08T20:02:42.227Z,83.03
2022-12-08T20:05:11.197Z,93.25
2022-12-08T20:07:38.633Z,79.43
2022-12-08T20:10:09.259Z,77.95
2022-12-08T20:12:36.038Z,72.47
2022-12-08T20:15:02.818Z,88.13
2022-12-08T20:17:29.748Z,76.32
2022-12-08T20:19:56.569Z,85.28
2022-12-08T20:22:23.396Z,150.18
2022-12-08T20:24:58.310Z,118.28
2022-12-08T20:27:29.141Z,105.53
2022-12-08T20:29:55.988Z,94.60
2022-12-08T20:32:22.764Z,86.45
2022-12-08T20:34:50.068Z,104.10
2022-12-08T20:37:16.871Z,119.30
2022-12-08T20:39:43.997Z,94.95
2022-12-08T20:42:14.731Z,90.72
2022-12-08T20:44:44.684Z,302.98
2022-12-08T20:47:12.257Z,190.15
2022-12-08T20:49:39.012Z,120.50
2022-12-08T20:52:06.098Z,361.95
2022-12-08T20:54:33.134Z,225.18
2022-12-08T20:57:00.548Z,152.77
2022-12-08T20:59:27.693Z,154.25
2022-12-08T21:01:57.974Z,309.33
2022-12-08T21:04:25.617Z,173.68
2022-12-08T21:06:52.809Z,144.18
2022-12-08T21:09:19.691Z,221.13
2022-12-08T21:11:46.635Z,165.32
2022-12-08T21:14:13.468Z,143.10
2022-12-08T21:16:40.406Z,140.98
2022-12-08T21:19:07.564Z,137.82
2022-12-08T21:21:34.952Z,119.18
2022-12-08T21:24:02.501Z,100.43
2022-12-08T21:26:33.164Z,100.55
2022-12-08T21:29:00.604Z,119.50
2022-12-08T21:31:32.565Z,160.07
2022-12-08T21:34:02.190Z,131.57
2022-12-08T21:36:29.249Z,135.32
2022-12-08T21:38:56.862Z,142.45
2022-12-08T21:41:38.363Z,124.65
2022-12-08T21:44:09.585Z,129.73
2022-12-08T21:46:36.789Z,117.60
2022-12-08T21:54:49.865Z,120.50
2022-12-08T21:57:16.757Z,154.77
2022-12-08T21:59:43.489Z,131.63
2022-12-08T22:02:15.638Z,93.03
2022-12-08T22:04:48.084Z,104.80
2022-12-08T22:07:15.353Z,104.07
2022-12-08T22:09:45.396Z,100.35
2022-12-08T22:12:12.346Z,106.22
2022-12-08T22:14:42.875Z,96.82
2022-12-08T22:17:09.923Z,109.43
2022-12-08T22:19:36.876Z,118.60
2022-12-08T22:22:03.964Z,120.70
2022-12-08T22:24:31.415Z,123.95
2022-12-08T22:26:58.793Z,116.93
2022-12-08T22:29:25.751Z,117.97
2022-12-08T22:31:52.540Z,112.97
2022-12-08T22:34:19.573Z,119.03
2022-12-08T22:36:49.653Z,122.45
2022-12-08T22:39:16.571Z,117.28
2022-12-08T22:41:43.482Z,126.70
2022-12-08T22:44:11.713Z,203.13
2022-12-08T22:46:38.823Z,147.13
2022-12-08T22:49:05.834Z,152.00
2022-12-08T22:51:35.494Z,179.23
2022-12-08T22:54:02.220Z,156.80
2022-12-08T22:56:29.026Z,167.32
2022-12-08T22:58:56.136Z,159.60
2022-12-08T23:01:24.101Z,152.77
2022-12-08T23:03:51.073Z,151.15
2022-12-08T23:06:18.557Z,147.20
2022-12-08T23:08:45.980Z,142.80
2022-12-08T23:11:12.958Z,150.30
2022-12-08T23:13:39.999Z,147.27
2022-12-08T23:16:24.934Z,140.73
2022-12-08T23:18:51.899Z,150.27
2022-12-08T23:21:19.121Z,137.10
2022-12-08T23:23:46.179Z,137.45
2022-12-08T23:26:33.098Z,131.93
2022-12-08T23:31:40.250Z,127.85
2022-12-08T23:34:07.366Z,121.90
2022-12-08T23:36:34.102Z,110.28
2022-12-08T23:39:23.522Z,110.75
2022-12-08T23:41:50.671Z,124.13
2022-12-08T23:44:17.750Z,116.50
2022-12-08T23:46:45.045Z,111.45
2022-12-08T23:49:12.758Z,108.38
2022-12-08T23:51:40.345Z,134.63
2022-12-08T23:54:07.639Z,121.00
2022-12-08T23:56:34.509Z,124.53
2022-12-08T23:59:01.339Z,124.43
